createdAt,value
2022-09-26T00:01:47.575Z,38.43
2022-09-26T00:03:53.905Z,38.64
2022-09-26T00:06:03.008Z,38.27
2022-09-26T00:08:05.723Z,38.14
2022-09-26T00:10:07.987Z,38.25
2022-09-26T00:12:09.751Z,38.26
2022-09-26T00:14:19.078Z,38.60
2022-09-26T00:16:20.985Z,38.62
2022-09-26T00:18:22.970Z,38.57
2022-09-26T00:20:24.657Z,38.48
2022-09-26T00:22:26.324Z,38.43
2022-09-26T00:24:28.037Z,38.27
2022-09-26T00:26:30.800Z,38.19
2022-09-26T00:28:32.585Z,37.96
2022-09-26T00:30:36.904Z,38.20
2022-09-26T00:32:38.421Z,38.36
2022-09-26T00:34:40.081Z,37.96
2022-09-26T00:36:41.760Z,38.16
2022-09-26T00:38:43.818Z,38.10
2022-09-26T00:40:45.754Z,38.60
2022-09-26T00:42:47.581Z,38.14
2022-09-26T00:44:50.800Z,38.32
2022-09-26T00:46:52.506Z,38.16
2022-09-26T00:49:31.560Z,38.36
2022-09-26T00:51:35.290Z,38.25
2022-09-26T00:53:40.301Z,38.32
2022-09-26T00:55:48.370Z,38.05
2022-09-26T00:57:56.736Z,38.20
2022-09-26T01:00:02.157Z,38.05
2022-09-26T01:02:04.082Z,38.09
2022-09-26T01:04:05.904Z,38.37
2022-09-26T01:06:07.680Z,38.22
2022-09-26T01:08:09.375Z,38.07
2022-09-26T01:10:11.216Z,37.89
2022-09-26T01:12:12.893Z,37.90
2022-09-26T01:14:14.676Z,38.08
2022-09-26T01:16:16.416Z,38.20
2022-09-26T01:18:18.197Z,38.05
2022-09-26T01:20:29.009Z,37.95
2022-09-26T01:22:37.541Z,38.27
2022-09-26T01:24:50.691Z,37.92
2022-09-26T01:27:01.048Z,37.90
2022-09-26T01:29:37.153Z,37.64
2022-09-26T01:31:42.438Z,37.70
2022-09-26T01:34:04.200Z,37.87
2022-09-26T01:36:43.985Z,37.65
2022-09-26T01:38:48.632Z,37.55
2022-09-26T01:41:24.300Z,37.95
2022-09-26T01:43:26.725Z,37.81
2022-09-26T01:45:33.962Z,37.95
2022-09-26T01:47:41.707Z,37.54
2022-09-26T01:49:50.936Z,38.03
2022-09-26T01:51:57.670Z,37.87
2022-09-26T01:54:06.489Z,37.63
2022-09-26T01:56:14.199Z,37.63
2022-09-26T01:58:31.790Z,37.67
2022-09-26T02:00:34.512Z,37.92
2022-09-26T02:02:38.391Z,38.01
2022-09-26T02:04:41.868Z,37.75
2022-09-26T02:06:57.035Z,37.73
2022-09-26T02:09:01.616Z,37.56
2022-09-26T02:11:14.847Z,37.99
2022-09-26T02:13:21.857Z,37.93
2022-09-26T02:15:24.016Z,37.90
2022-09-26T02:17:27.004Z,37.55
2022-09-26T02:19:30.204Z,37.71
2022-09-26T02:21:31.978Z,37.77
2022-09-26T02:23:33.644Z,37.73
2022-09-26T02:25:35.369Z,37.67
2022-09-26T02:27:37.138Z,37.37
2022-09-26T02:29:38.839Z,37.43
2022-09-26T02:31:46.199Z,37.40
2022-09-26T02:33:49.517Z,37.29
2022-09-26T02:35:51.285Z,37.51
2022-09-26T02:37:53.058Z,37.65
2022-09-26T02:39:54.761Z,37.48
2022-09-26T02:42:02.506Z,37.28
2022-09-26T02:44:12.239Z,37.68
2022-09-26T02:46:51.199Z,37.19
2022-09-26T02:49:04.970Z,37.58
2022-09-26T02:51:35.902Z,37.49
2022-09-26T02:53:49.133Z,37.57
2022-09-26T02:56:22.753Z,37.61
2022-09-26T02:58:29.213Z,37.37
2022-09-26T03:01:12.001Z,37.42
2022-09-26T03:03:36.033Z,37.06
2022-09-26T03:05:38.279Z,37.52
2022-09-26T03:07:52.902Z,37.35
2022-09-26T03:09:54.600Z,36.98
2022-09-26T03:11:57.070Z,37.34
2022-09-26T03:13:58.819Z,37.39
2022-09-26T03:16:00.671Z,37.42
2022-09-26T03:18:02.383Z,37.50
2022-09-26T03:20:12.742Z,37.43
2022-09-26T03:22:15.511Z,37.36
2022-09-26T03:24:17.151Z,37.33
2022-09-26T03:26:20.653Z,36.90
2022-09-26T03:28:22.285Z,36.99
2022-09-26T03:30:24.093Z,36.88
2022-09-26T03:32:25.800Z,37.28
2022-09-26T03:34:27.719Z,36.79
2022-09-26T03:36:29.474Z,37.05
2022-09-26T03:38:31.209Z,37.41
2022-09-26T03:40:32.966Z,37.43
2022-09-26T03:42:34.954Z,37.06
2022-09-26T03:44:36.802Z,37.32
2022-09-26T03:46:40.206Z,36.88
2022-09-26T03:48:42.145Z,36.93
2022-09-26T03:50:43.872Z,37.05
2022-09-26T03:52:45.586Z,37.16
2022-09-26T03:54:47.261Z,36.89
2022-09-26T03:56:48.996Z,36.89
2022-09-26T03:58:50.793Z,36.79
2022-09-26T04:00:52.577Z,36.94
2022-09-26T04:02:54.297Z,37.26
2022-09-26T04:04:56.009Z,37.17
2022-09-26T04:06:58.216Z,37.22
2022-09-26T04:08:59.922Z,37.21
2022-09-26T04:11:03.007Z,36.93
2022-09-26T04:13:04.996Z,37.69
2022-09-26T04:15:07.733Z,36.99
2022-09-26T04:17:10.264Z,37.39
2022-09-26T04:19:12.013Z,37.37
2022-09-26T04:21:14.031Z,37.18
2022-09-26T04:23:16.037Z,36.82
2022-09-26T04:25:17.710Z,37.21
2022-09-26T04:27:19.728Z,37.29
2022-09-26T04:29:21.624Z,37.11
2022-09-26T04:31:24.341Z,37.29
2022-09-26T04:33:26.154Z,37.47
2022-09-26T04:35:27.956Z,37.34
2022-09-26T04:37:29.675Z,37.41
2022-09-26T04:39:31.404Z,38.42
2022-09-26T04:41:33.071Z,37.91
2022-09-26T04:43:35.089Z,37.65
2022-09-26T04:45:36.926Z,37.54
2022-09-26T04:47:38.686Z,37.49
2022-09-26T04:49:40.397Z,37.58
2022-09-26T04:51:42.062Z,37.38
2022-09-26T04:53:43.965Z,37.24
2022-09-26T04:55:46.257Z,37.24
2022-09-26T04:57:50.990Z,36.90
2022-09-26T04:59:52.747Z,37.14
2022-09-26T05:01:54.484Z,37.08
2022-09-26T05:03:56.210Z,37.04
2022-09-26T05:05:58.200Z,36.86
2022-09-26T05:07:59.904Z,37.00
2022-09-26T05:10:01.665Z,36.90
2022-09-26T05:12:03.499Z,36.70
2022-09-26T05:14:05.197Z,37.00
2022-09-26T05:16:07.162Z,36.65
2022-09-26T05:18:08.889Z,36.60
2022-09-26T05:20:10.568Z,36.85
2022-09-26T05:22:12.313Z,36.91
2022-09-26T05:24:13.979Z,36.58
2022-09-26T05:26:17.563Z,36.91
2022-09-26T05:28:19.236Z,37.07
2022-09-26T05:30:20.930Z,36.99
2022-09-26T05:32:22.698Z,36.87
2022-09-26T05:34:24.477Z,36.88
2022-09-26T05:36:26.482Z,36.84
2022-09-26T05:38:28.190Z,36.49
2022-09-26T05:40:29.954Z,36.79
2022-09-26T05:42:31.783Z,36.55
2022-09-26T05:44:33.387Z,36.82
2022-09-26T05:46:35.137Z,36.67
2022-09-26T05:48:37.591Z,36.58
2022-09-26T05:50:43.358Z,36.72
2022-09-26T05:52:45.318Z,36.52
2022-09-26T05:54:46.951Z,36.62
2022-09-26T05:56:48.685Z,36.29
2022-09-26T05:58:50.386Z,36.24
2022-09-26T06:00:52.145Z,35.99
2022-09-26T06:02:57.291Z,36.50
2022-09-26T06:04:58.954Z,36.17
2022-09-26T06:07:00.597Z,36.09
2022-09-26T06:09:02.312Z,36.26
2022-09-26T06:11:09.278Z,36.16
2022-09-26T06:13:10.993Z,36.54
2022-09-26T06:15:12.839Z,36.19
2022-09-26T06:17:14.587Z,36.05
2022-09-26T06:19:20.596Z,36.14
2022-09-26T06:21:24.393Z,36.23
2022-09-26T06:23:25.998Z,36.08
2022-09-26T06:25:28.191Z,36.22
2022-09-26T06:27:29.816Z,36.09
2022-09-26T06:29:31.482Z,36.22
2022-09-26T06:31:33.281Z,35.89
2022-09-26T06:33:34.991Z,36.03
2022-09-26T06:35:36.630Z,35.90
2022-09-26T06:37:38.364Z,36.17
2022-09-26T06:39:40.035Z,36.07
2022-09-26T06:41:41.726Z,35.59
2022-09-26T06:43:46.420Z,35.97
2022-09-26T06:45:48.312Z,35.98
2022-09-26T06:47:50.035Z,35.87
2022-09-26T06:49:51.768Z,35.54
2022-09-26T06:51:53.458Z,35.88
2022-09-26T06:53:55.097Z,35.70
2022-09-26T06:55:58.446Z,36.05
2022-09-26T06:58:00.093Z,35.67
2022-09-26T07:00:01.945Z,36.03
2022-09-26T07:02:03.711Z,36.07
2022-09-26T07:04:05.502Z,35.60
2022-09-26T07:06:07.263Z,35.97
2022-09-26T07:08:08.906Z,35.48
2022-09-26T07:10:10.623Z,35.67
2022-09-26T07:12:14.953Z,35.96
2022-09-26T07:14:17.175Z,35.70
2022-09-26T07:16:18.913Z,35.79
2022-09-26T07:18:20.677Z,35.69
2022-09-26T07:20:22.379Z,35.68
2022-09-26T07:22:24.072Z,35.69
2022-09-26T07:24:25.743Z,35.68
2022-09-26T07:26:27.429Z,35.41
2022-09-26T07:28:29.084Z,35.89
2022-09-26T07:30:30.857Z,35.81
2022-09-26T07:32:32.547Z,35.93
2022-09-26T07:34:34.215Z,35.88
2022-09-26T07:36:35.857Z,35.69
2022-09-26T07:38:37.532Z,35.75
2022-09-26T07:40:39.387Z,35.56
2022-09-26T07:42:41.141Z,35.85
2022-09-26T07:47:05.474Z,35.50
2022-09-26T07:49:07.129Z,35.94
2022-09-26T07:51:09.462Z,35.47
2022-09-26T07:53:11.344Z,35.45
2022-09-26T07:55:17.734Z,35.51
2022-09-26T07:57:19.475Z,35.70
2022-09-26T07:59:21.371Z,35.56
2022-09-26T08:01:23.087Z,35.55
2022-09-26T08:03:24.860Z,35.67
2022-09-26T08:05:26.555Z,35.39
2022-09-26T08:07:28.284Z,35.43
2022-09-26T08:09:29.959Z,35.53
2022-09-26T08:11:31.647Z,35.64
2022-09-26T08:13:33.452Z,35.50
2022-09-26T08:15:35.125Z,35.78
2022-09-26T08:17:36.850Z,35.46
2022-09-26T08:19:38.663Z,35.84
2022-09-26T08:21:40.391Z,35.79
2022-09-26T08:23:42.100Z,35.80
2022-09-26T08:25:44.030Z,35.28
2022-09-26T08:27:45.736Z,35.29
2022-09-26T08:29:47.509Z,35.41
2022-09-26T08:31:49.464Z,35.35
2022-09-26T08:33:51.281Z,35.48
2022-09-26T08:35:52.947Z,35.35
2022-09-26T08:37:54.666Z,35.54
2022-09-26T08:39:56.362Z,35.80
2022-09-26T08:42:19.573Z,35.58
2022-09-26T08:44:27.197Z,35.70
2022-09-26T08:46:38.019Z,35.61
2022-09-26T08:49:00.900Z,35.51
2022-09-26T08:51:35.287Z,35.38
2022-09-26T08:53:51.770Z,35.47
2022-09-26T08:55:53.602Z,35.38
2022-09-26T08:58:05.822Z,35.24
2022-09-26T09:00:17.178Z,35.19
2022-09-26T09:02:23.810Z,35.43
2022-09-26T09:04:40.917Z,35.42
2022-09-26T09:06:42.576Z,35.50
2022-09-26T09:08:46.545Z,35.40
2022-09-26T09:11:06.383Z,35.33
2022-09-26T09:13:33.516Z,35.59
2022-09-26T09:15:43.796Z,35.28
2022-09-26T09:17:52.844Z,35.57
2022-09-26T09:20:14.159Z,35.18
2022-09-26T09:22:15.742Z,35.49
2022-09-26T09:24:35.690Z,35.20
2022-09-26T09:29:42.012Z,35.05
2022-09-26T09:31:43.851Z,35.32
2022-09-26T09:33:50.752Z,35.21
2022-09-26T09:36:04.780Z,35.43
2022-09-26T09:38:07.166Z,35.61
2022-09-26T09:40:22.541Z,35.58
2022-09-26T09:42:38.489Z,35.07
2022-09-26T09:45:05.658Z,35.45
2022-09-26T09:47:17.902Z,35.35
2022-09-26T09:49:23.564Z,35.66
2022-09-26T09:51:43.053Z,35.59
2022-09-26T09:54:01.929Z,35.21
2022-09-26T09:56:42.222Z,35.44
2022-09-26T09:58:59.257Z,35.16
2022-09-26T10:01:12.157Z,35.43
2022-09-26T10:03:29.124Z,35.56
2022-09-26T10:05:43.937Z,35.16
2022-09-26T10:07:45.422Z,35.38
2022-09-26T10:09:47.214Z,35.04
2022-09-26T10:11:52.453Z,35.21
2022-09-26T10:13:54.578Z,35.27
2022-09-26T10:16:00.205Z,35.34
2022-09-26T10:18:24.261Z,35.20
2022-09-26T10:20:34.497Z,35.04
2022-09-26T10:22:37.112Z,35.11
2022-09-26T10:24:39.237Z,35.51
2022-09-26T10:26:40.925Z,35.04
2022-09-26T10:28:46.925Z,35.46
2022-09-26T10:30:55.072Z,35.19
2022-09-26T10:33:00.404Z,35.35
2022-09-26T10:35:09.324Z,35.52
2022-09-26T10:37:24.798Z,35.54
2022-09-26T10:39:29.482Z,35.46
2022-09-26T10:41:31.134Z,35.61
2022-09-26T10:43:34.179Z,35.30
2022-09-26T10:45:35.887Z,35.35
2022-09-26T10:47:37.599Z,35.30
2022-09-26T10:49:57.630Z,35.13
2022-09-26T10:52:06.069Z,35.42
2022-09-26T10:54:17.159Z,35.51
2022-09-26T10:56:23.266Z,35.42
2022-09-26T10:58:26.548Z,35.43
2022-09-26T11:00:34.195Z,35.19
2022-09-26T11:02:35.889Z,35.28
2022-09-26T11:04:45.476Z,34.80
2022-09-26T11:06:47.216Z,35.14
2022-09-26T11:08:51.690Z,34.82
2022-09-26T11:10:53.600Z,35.05
2022-09-26T11:12:57.391Z,35.09
2022-09-26T11:15:00.490Z,35.02
2022-09-26T11:17:02.159Z,34.89
2022-09-26T11:19:25.522Z,35.05
2022-09-26T11:21:49.066Z,35.31
2022-09-26T11:23:56.528Z,35.35
2022-09-26T11:26:13.211Z,35.07
2022-09-26T11:28:17.644Z,34.91
2022-09-26T11:30:22.497Z,34.96
2022-09-26T11:32:30.609Z,35.02
2022-09-26T11:34:33.002Z,35.02
2022-09-26T11:36:56.099Z,35.15
2022-09-26T11:38:57.841Z,34.94
2022-09-26T11:41:11.569Z,35.29
2022-09-26T11:43:13.119Z,35.12
2022-09-26T11:45:53.124Z,34.94
2022-09-26T11:48:03.415Z,34.89
2022-09-26T11:50:13.958Z,34.69
2022-09-26T11:52:21.489Z,34.95
2022-09-26T11:54:39.080Z,35.03
2022-09-26T11:56:49.562Z,35.21
2022-09-26T11:59:29.714Z,34.98
2022-09-26T12:02:01.880Z,34.98
2022-09-26T12:04:41.048Z,35.07
2022-09-26T12:07:15.770Z,34.96
2022-09-26T12:10:05.658Z,34.75
2022-09-26T12:12:42.088Z,34.91
2022-09-26T12:15:05.045Z,35.20
2022-09-26T12:17:27.314Z,35.08
2022-09-26T12:19:39.420Z,35.43
2022-09-26T12:21:53.031Z,35.24
2022-09-26T12:23:56.025Z,35.59
2022-09-26T12:26:00.640Z,35.40
2022-09-26T12:28:35.327Z,35.48
2022-09-26T12:31:04.035Z,35.33
2022-09-26T12:33:14.650Z,35.42
2022-09-26T12:35:43.490Z,35.31
2022-09-26T12:37:54.308Z,35.13
2022-09-26T12:40:07.766Z,35.86
2022-09-26T12:42:33.909Z,36.07
2022-09-26T12:44:48.395Z,35.43
2022-09-26T12:47:08.309Z,35.89
2022-09-26T12:49:41.360Z,37.76
2022-09-26T12:51:49.461Z,35.78
2022-09-26T12:54:00.151Z,36.29
2022-09-26T12:56:08.526Z,37.03
2022-09-26T12:58:19.232Z,34.05
2022-09-26T13:00:21.299Z,34.41
2022-09-26T13:02:36.857Z,33.38
2022-09-26T13:04:47.682Z,33.45
2022-09-26T13:07:18.798Z,33.01
2022-09-26T13:09:52.649Z,32.31
2022-09-26T13:12:13.104Z,31.99
2022-09-26T13:14:20.673Z,32.93
2022-09-26T13:16:28.483Z,32.07
2022-09-26T13:18:35.912Z,32.08
2022-09-26T13:20:40.074Z,32.22
2022-09-26T13:22:46.810Z,31.97
2022-09-26T13:24:53.331Z,31.41
2022-09-26T13:27:00.280Z,31.82
2022-09-26T13:29:18.210Z,32.03
2022-09-26T13:31:32.340Z,31.91
2022-09-26T13:33:38.116Z,31.43
2022-09-26T13:35:40.352Z,32.05
2022-09-26T13:38:08.034Z,31.14
2022-09-26T13:40:45.225Z,32.32
2022-09-26T13:43:10.924Z,32.05
2022-09-26T13:45:23.468Z,32.38
2022-09-26T13:47:40.266Z,32.15
2022-09-26T13:50:02.169Z,32.20
2022-09-26T13:52:07.087Z,31.73
2022-09-26T13:54:08.712Z,31.42
2022-09-26T13:56:34.472Z,32.16
2022-09-26T13:58:39.281Z,31.87
2022-09-26T14:00:41.297Z,31.85
2022-09-26T14:02:43.026Z,31.50
2022-09-26T14:04:46.022Z,31.51
2022-09-26T14:07:09.373Z,31.65
2022-09-26T14:09:19.916Z,31.21
2022-09-26T14:11:25.790Z,31.89
2022-09-26T14:13:36.965Z,32.09
2022-09-26T14:15:47.915Z,32.73
2022-09-26T14:17:52.725Z,32.49
2022-09-26T14:19:54.494Z,32.26
2022-09-26T14:22:06.147Z,31.67
2022-09-26T14:24:30.278Z,31.22
2022-09-26T14:26:41.686Z,31.91
2022-09-26T14:28:54.130Z,31.60
2022-09-26T14:31:10.906Z,31.66
2022-09-26T14:33:12.708Z,31.38
2022-09-26T14:35:17.016Z,32.07
2022-09-26T14:37:18.503Z,31.71
2022-09-26T14:39:27.784Z,32.13
2022-09-26T14:41:31.698Z,31.96
2022-09-26T14:43:33.543Z,32.05
2022-09-26T14:45:48.885Z,31.49
2022-09-26T14:47:59.777Z,31.54
2022-09-26T14:50:06.067Z,31.77
2022-09-26T14:52:15.794Z,31.60
2022-09-26T14:54:21.712Z,31.69
2022-09-26T14:56:26.478Z,32.18
2022-09-26T14:58:46.670Z,31.93
2022-09-26T15:00:48.677Z,32.12
2022-09-26T15:02:50.875Z,32.39
2022-09-26T15:05:08.724Z,33.43
2022-09-26T15:07:16.324Z,32.67
2022-09-26T15:09:26.009Z,32.69
2022-09-26T15:11:36.356Z,33.04
2022-09-26T15:13:38.670Z,32.96
2022-09-26T15:15:48.673Z,32.51
2022-09-26T15:17:52.982Z,33.25
2022-09-26T15:19:55.202Z,33.89
2022-09-26T15:22:08.461Z,33.81
2022-09-26T15:24:22.788Z,33.90
2022-09-26T15:26:35.872Z,34.37
2022-09-26T15:28:37.794Z,34.51
2022-09-26T15:30:39.812Z,34.43
2022-09-26T15:32:41.586Z,34.20
2022-09-26T15:34:43.596Z,34.33
2022-09-26T15:36:47.254Z,35.67
2022-09-26T15:38:48.980Z,34.98
2022-09-26T15:41:02.878Z,34.25
2022-09-26T15:43:14.453Z,34.45
2022-09-26T15:45:28.015Z,34.23
2022-09-26T15:47:29.691Z,33.97
2022-09-26T15:49:31.804Z,33.86
2022-09-26T15:51:38.050Z,33.89
2022-09-26T15:53:51.255Z,33.85
2022-09-26T15:55:56.262Z,33.99
2022-09-26T15:57:59.174Z,34.40
2022-09-26T16:00:01.578Z,34.75
2022-09-26T16:02:03.567Z,34.14
2022-09-26T16:04:13.224Z,33.26
2022-09-26T16:06:36.566Z,33.40
2022-09-26T16:08:40.584Z,33.16
2022-09-26T16:10:43.171Z,32.97
2022-09-26T16:12:46.041Z,32.94
2022-09-26T16:15:08.765Z,32.75
2022-09-26T16:17:22.007Z,32.54
2022-09-26T16:19:51.121Z,32.55
2022-09-26T16:21:56.214Z,32.76
2022-09-26T16:24:00.296Z,33.39
2022-09-26T16:26:02.365Z,33.54
2022-09-26T16:28:07.534Z,33.76
2022-09-26T16:30:21.354Z,34.06
2022-09-26T16:32:23.321Z,34.08
2022-09-26T16:34:25.155Z,34.27
2022-09-26T16:36:31.197Z,34.21
2022-09-26T16:38:34.088Z,34.25
2022-09-26T16:40:36.304Z,34.67
2022-09-26T16:42:38.242Z,34.52
2022-09-26T16:44:40.867Z,34.66
2022-09-26T16:46:42.714Z,34.64
2022-09-26T16:48:50.747Z,34.60
2022-09-26T16:51:11.029Z,33.80
2022-09-26T16:53:12.984Z,33.84
2022-09-26T16:55:14.917Z,33.38
2022-09-26T16:57:37.648Z,33.49
2022-09-26T16:59:39.510Z,33.32
2022-09-26T17:01:41.415Z,32.85
2022-09-26T17:03:43.473Z,32.75
2022-09-26T17:05:45.493Z,32.85
2022-09-26T17:07:48.384Z,32.36
2022-09-26T17:09:50.216Z,32.82
2022-09-26T17:11:52.263Z,33.08
2022-09-26T17:13:56.168Z,32.83
2022-09-26T17:15:58.144Z,32.68
2022-09-26T17:18:08.837Z,32.44
2022-09-26T17:20:12.684Z,32.72
2022-09-26T17:22:16.098Z,32.61
2022-09-26T17:24:25.435Z,32.59
2022-09-26T17:26:27.138Z,32.79
2022-09-26T17:28:31.516Z,32.84
2022-09-26T17:30:33.287Z,32.61
2022-09-26T17:32:38.560Z,33.07
2022-09-26T17:34:40.684Z,32.77
2022-09-26T17:36:49.049Z,32.48
2022-09-26T17:38:51.354Z,32.91
2022-09-26T17:40:53.193Z,32.24
2022-09-26T17:42:56.111Z,32.47
2022-09-26T17:44:58.035Z,32.45
2022-09-26T17:46:59.877Z,32.09
2022-09-26T17:49:02.201Z,33.07
2022-09-26T17:51:09.343Z,33.39
2022-09-26T17:53:15.220Z,33.49
2022-09-26T17:55:21.441Z,34.01
2022-09-26T17:57:24.370Z,33.71
2022-09-26T17:59:28.481Z,34.17
2022-09-26T18:01:31.184Z,34.20
2022-09-26T18:03:36.356Z,34.93
2022-09-26T18:05:38.866Z,34.49
2022-09-26T18:07:40.930Z,34.73
2022-09-26T18:09:42.947Z,34.89
2022-09-26T18:11:48.924Z,34.85
2022-09-26T18:13:53.163Z,35.25
2022-09-26T18:15:56.026Z,35.17
2022-09-26T18:17:57.917Z,35.62
2022-09-26T18:19:59.721Z,35.67
2022-09-26T18:22:03.217Z,35.92
2022-09-26T18:24:05.779Z,35.74
2022-09-26T18:26:08.747Z,36.17
2022-09-26T18:28:13.184Z,36.00
2022-09-26T18:30:15.092Z,36.42
2022-09-26T18:32:27.523Z,36.56
2022-09-26T18:34:29.189Z,36.19
2022-09-26T18:36:34.221Z,36.13
2022-09-26T18:38:35.921Z,36.81
2022-09-26T18:40:40.512Z,36.77
2022-09-26T18:42:42.640Z,36.77
2022-09-26T18:44:44.325Z,36.81
2022-09-26T18:46:46.559Z,36.70
2022-09-26T18:48:48.809Z,36.63
2022-09-26T18:50:50.608Z,36.82
2022-09-26T18:52:55.674Z,36.61
2022-09-26T18:54:57.590Z,37.03
2022-09-26T18:56:59.364Z,36.52
2022-09-26T18:59:01.259Z,36.58
2022-09-26T19:01:04.306Z,36.56
2022-09-26T19:03:06.367Z,36.82
2022-09-26T19:05:10.687Z,36.57
2022-09-26T19:07:14.258Z,36.55
2022-09-26T19:09:20.521Z,36.94
2022-09-26T19:11:23.452Z,36.89
2022-09-26T19:13:27.536Z,36.68
2022-09-26T19:15:29.526Z,37.21
2022-09-26T19:17:31.354Z,37.05
2022-09-26T19:19:33.128Z,37.06
2022-09-26T19:21:38.014Z,37.07
2022-09-26T19:23:39.848Z,37.03
2022-09-26T19:25:41.666Z,37.24
2022-09-26T19:27:49.904Z,37.11
2022-09-26T19:30:11.973Z,37.10
2022-09-26T19:32:21.863Z,37.18
2022-09-26T19:34:23.702Z,37.25
2022-09-26T19:36:25.558Z,37.18
2022-09-26T19:38:27.465Z,37.33
2022-09-26T19:40:29.401Z,37.03
2022-09-26T19:42:31.263Z,37.45
2022-09-26T19:44:33.054Z,37.23
2022-09-26T19:46:35.111Z,37.50
2022-09-26T19:48:38.978Z,37.30
2022-09-26T19:50:40.945Z,37.51
2022-09-26T19:52:42.712Z,37.49
2022-09-26T19:54:44.709Z,37.30
2022-09-26T19:56:46.572Z,37.36
2022-09-26T19:58:48.308Z,37.88
2022-09-26T20:00:52.405Z,37.57
2022-09-26T20:02:54.222Z,37.90
2022-09-26T20:04:55.991Z,37.89
2022-09-26T20:06:57.685Z,38.41
2022-09-26T20:09:01.792Z,37.70
2022-09-26T20:11:03.570Z,38.22
2022-09-26T20:13:05.281Z,37.72
2022-09-26T20:15:07.507Z,38.14
2022-09-26T20:17:27.133Z,38.26
2022-09-26T20:19:35.672Z,38.17
2022-09-26T20:21:37.443Z,38.26
2022-09-26T20:23:39.168Z,38.27
2022-09-26T20:25:40.936Z,38.08
2022-09-26T20:27:42.648Z,37.86
2022-09-26T20:29:45.059Z,37.98
2022-09-26T20:31:46.769Z,37.95
2022-09-26T20:33:49.643Z,37.96
2022-09-26T20:36:02.657Z,38.06
2022-09-26T20:38:06.886Z,38.18
2022-09-26T20:40:19.686Z,38.17
2022-09-26T20:42:21.531Z,38.11
2022-09-26T20:44:27.931Z,38.48
2022-09-26T20:46:37.151Z,38.07
2022-09-26T20:48:40.140Z,38.62
2022-09-26T20:50:41.868Z,38.77
2022-09-26T20:52:43.644Z,38.32
2022-09-26T20:54:45.345Z,38.38
2022-09-26T20:56:47.098Z,38.52
2022-09-26T20:58:48.783Z,38.28
2022-09-26T21:00:50.471Z,38.57
2022-09-26T21:02:52.531Z,38.46
2022-09-26T21:04:54.501Z,38.29
2022-09-26T21:06:56.234Z,38.43
2022-09-26T21:08:57.942Z,38.69
2022-09-26T21:10:59.609Z,38.57
2022-09-26T21:13:01.531Z,38.31
2022-09-26T21:15:03.400Z,38.13
2022-09-26T21:17:05.196Z,38.29
2022-09-26T21:19:06.929Z,38.67
2022-09-26T21:21:12.003Z,38.73
2022-09-26T21:23:13.764Z,38.34
2022-09-26T21:25:19.567Z,38.71
2022-09-26T21:27:21.407Z,38.17
2022-09-26T21:29:23.233Z,38.25
2022-09-26T21:31:35.282Z,38.28
2022-09-26T21:33:37.737Z,38.11
2022-09-26T21:35:39.417Z,38.45
2022-09-26T21:37:42.105Z,38.34
2022-09-26T21:39:43.845Z,38.13
2022-09-26T21:41:52.869Z,38.20
2022-09-26T21:44:01.392Z,38.26
2022-09-26T21:46:03.133Z,38.06
2022-09-26T21:48:04.870Z,37.98
2022-09-26T21:50:07.299Z,38.28
2022-09-26T21:52:19.788Z,38.06
2022-09-26T21:54:23.675Z,38.05
2022-09-26T21:56:28.064Z,37.92
2022-09-26T21:58:30.636Z,37.77
2022-09-26T22:00:32.318Z,37.80
2022-09-26T22:02:34.123Z,37.87
2022-09-26T22:04:35.865Z,37.76
2022-09-26T22:06:37.681Z,37.41
2022-09-26T22:08:39.672Z,37.55
2022-09-26T22:10:41.371Z,37.55
2022-09-26T22:12:43.277Z,37.81
2022-09-26T22:14:45.003Z,37.85
2022-09-26T22:16:46.821Z,37.35
2022-09-26T22:18:48.623Z,37.58
2022-09-26T22:20:56.081Z,37.38
2022-09-26T22:22:57.805Z,37.66
2022-09-26T22:24:59.530Z,37.68
2022-09-26T22:27:01.327Z,37.52
2022-09-26T22:29:03.046Z,37.43
2022-09-26T22:31:04.970Z,37.29
2022-09-26T22:33:06.800Z,37.69
2022-09-26T22:35:08.678Z,37.33
2022-09-26T22:37:10.468Z,37.71
2022-09-26T22:39:12.214Z,37.45
2022-09-26T22:41:13.912Z,37.59
2022-09-26T22:43:15.646Z,37.46
2022-09-26T22:45:17.618Z,37.49
2022-09-26T22:47:19.361Z,37.72
2022-09-26T22:49:21.118Z,37.58
2022-09-26T22:51:22.801Z,37.57
2022-09-26T22:53:24.518Z,37.57
2022-09-26T22:55:26.300Z,37.33
2022-09-26T22:57:28.019Z,37.62
2022-09-26T22:59:29.795Z,37.22
2022-09-26T23:01:31.608Z,37.17
2022-09-26T23:03:33.792Z,37.24
2022-09-26T23:05:35.488Z,37.32
2022-09-26T23:07:37.226Z,37.15
2022-09-26T23:09:38.972Z,37.20
2022-09-26T23:11:40.670Z,37.36
2022-09-26T23:13:42.434Z,37.38
2022-09-26T23:15:44.114Z,37.00
2022-09-26T23:17:46.538Z,37.14
2022-09-26T23:19:48.317Z,37.08
2022-09-26T23:21:50.117Z,37.07
2022-09-26T23:23:53.406Z,37.25
2022-09-26T23:25:55.062Z,36.92
2022-09-26T23:27:56.850Z,37.34
2022-09-26T23:29:58.528Z,37.32
2022-09-26T23:32:00.367Z,37.06
2022-09-26T23:34:02.118Z,37.05
2022-09-26T23:36:04.062Z,37.14
2022-09-26T23:38:05.818Z,36.99
2022-09-26T23:40:08.228Z,36.91
2022-09-26T23:42:09.950Z,37.04
2022-09-26T23:44:11.687Z,37.10
2022-09-26T23:46:13.611Z,36.74
2022-09-26T23:48:15.515Z,37.03
2022-09-26T23:50:17.239Z,37.24
2022-09-26T23:52:18.992Z,36.85
2022-09-26T23:54:20.703Z,36.83
2022-09-26T23:56:22.411Z,36.94
2022-09-26T23:58:24.108Z,36.70
